createdAt,value
2023-02-24T00:02:00.394Z,6.72
2023-02-24T00:04:52.072Z,6.74
2023-02-24T00:07:41.287Z,6.60
2023-02-24T00:10:31.498Z,6.26
2023-02-24T00:13:22.553Z,6.13
2023-02-24T00:16:13.426Z,5.89
2023-02-24T00:19:03.618Z,5.69
2023-02-24T00:21:54.556Z,5.82
2023-02-24T00:24:43.917Z,6.01
2023-02-24T00:27:33.590Z,6.14
2023-02-24T00:30:24.198Z,6.25
2023-02-24T00:33:14.714Z,6.25
2023-02-24T00:36:11.780Z,6.18
2023-02-24T00:39:09.361Z,6.11
2023-02-24T00:42:04.817Z,5.74
2023-02-24T00:44:55.286Z,5.90
2023-02-24T00:47:44.822Z,5.94
2023-02-24T00:50:35.618Z,5.97
2023-02-24T00:53:25.119Z,5.98
2023-02-24T00:56:16.498Z,5.91
2023-02-24T00:59:05.896Z,5.82
2023-02-24T01:01:56.002Z,5.97
2023-02-24T01:04:46.376Z,6.07
2023-02-24T01:07:37.698Z,5.92
2023-02-24T01:10:30.675Z,5.78
2023-02-24T01:13:19.372Z,5.67
2023-02-24T01:16:09.667Z,5.64
2023-02-24T01:18:58.725Z,5.77
2023-02-24T01:21:48.081Z,5.89
2023-02-24T01:24:42.570Z,5.90
2023-02-24T01:27:32.612Z,5.85
2023-02-24T01:30:22.844Z,5.74
2023-02-24T01:33:14.840Z,5.72
2023-02-24T01:36:10.471Z,5.79
2023-02-24T01:39:01.530Z,5.83
2023-02-24T01:41:53.435Z,5.89
2023-02-24T01:45:13.352Z,6.05
2023-02-24T01:48:05.460Z,6.16
2023-02-24T01:50:55.488Z,6.26
2023-02-24T01:53:44.682Z,6.34
2023-02-24T01:56:33.937Z,6.42
2023-02-24T01:59:26.129Z,6.47
2023-02-24T02:02:16.087Z,6.45
2023-02-24T02:05:09.589Z,6.51
2023-02-24T02:07:58.784Z,6.55
2023-02-24T02:10:48.668Z,6.49
2023-02-24T02:13:39.529Z,6.51
2023-02-24T02:16:53.598Z,6.49
2023-02-24T02:20:16.788Z,6.51
2023-02-24T02:23:32.382Z,6.52
2023-02-24T02:26:40.642Z,6.63
2023-02-24T02:30:13.840Z,6.49
2023-02-24T02:33:55.129Z,6.40
2023-02-24T02:36:55.281Z,6.51
2023-02-24T02:39:50.772Z,6.51
2023-02-24T02:42:42.957Z,6.49
2023-02-24T02:45:40.405Z,6.44
2023-02-24T02:48:34.619Z,6.42
2023-02-24T02:51:28.215Z,6.24
2023-02-24T02:54:23.360Z,6.18
2023-02-24T02:57:15.698Z,6.19
2023-02-24T03:00:13.597Z,6.23
2023-02-24T03:03:07.163Z,6.31
2023-02-24T03:05:59.170Z,6.31
2023-02-24T03:08:53.680Z,6.26
2023-02-24T03:11:45.536Z,6.21
2023-02-24T03:14:37.726Z,6.22
2023-02-24T03:17:29.638Z,6.27
2023-02-24T03:20:22.897Z,6.14
2023-02-24T03:23:16.998Z,6.03
2023-02-24T03:26:17.203Z,6.11
2023-02-24T03:29:17.235Z,6.15
2023-02-24T03:32:11.223Z,6.06
2023-02-24T03:35:03.272Z,6.14
2023-02-24T03:37:55.382Z,6.24
2023-02-24T03:40:45.106Z,6.29
2023-02-24T03:43:45.543Z,6.35
2023-02-24T03:46:36.833Z,6.37
2023-02-24T03:49:26.597Z,6.44
2023-02-24T03:52:23.282Z,6.50
2023-02-24T03:55:19.740Z,6.48
2023-02-24T03:58:16.703Z,6.42
2023-02-24T04:01:13.857Z,6.45
2023-02-24T04:04:08.713Z,6.51
2023-02-24T04:07:18.577Z,6.55
2023-02-24T04:10:12.948Z,6.48
2023-02-24T04:13:13.106Z,6.50
2023-02-24T04:16:06.146Z,6.49
2023-02-24T04:18:58.301Z,6.44
2023-02-24T04:21:49.915Z,6.42
2023-02-24T04:24:46.212Z,6.38
2023-02-24T04:27:35.692Z,6.33
2023-02-24T04:30:36.691Z,6.37
2023-02-24T04:33:26.966Z,6.33
2023-02-24T04:36:15.846Z,6.36
2023-02-24T04:39:07.772Z,6.34
2023-02-24T04:41:58.167Z,6.20
2023-02-24T04:44:47.842Z,6.16
2023-02-24T04:47:37.387Z,6.16
2023-02-24T04:50:27.077Z,6.15
2023-02-24T04:58:29.764Z,6.00
2023-02-24T05:01:19.937Z,6.06
2023-02-24T05:04:09.959Z,6.04
2023-02-24T05:06:59.400Z,5.91
2023-02-24T05:09:49.222Z,5.78
2023-02-24T05:12:40.275Z,5.63
2023-02-24T05:15:32.317Z,5.66
2023-02-24T05:18:24.066Z,5.52
2023-02-24T05:21:31.943Z,5.46
2023-02-24T05:24:21.021Z,5.40
2023-02-24T05:27:10.847Z,5.32
2023-02-24T05:29:59.893Z,5.28
2023-02-24T05:32:50.358Z,5.21
2023-02-24T05:35:39.683Z,5.21
2023-02-24T05:38:28.605Z,5.32
2023-02-24T05:41:20.249Z,5.36
2023-02-24T05:44:12.374Z,5.33
2023-02-24T05:47:01.765Z,5.34
2023-02-24T05:49:54.477Z,5.30
2023-02-24T05:52:45.931Z,5.47
2023-02-24T05:55:36.605Z,5.50
2023-02-24T05:58:29.278Z,5.64
2023-02-24T06:01:19.527Z,5.69
2023-02-24T06:04:10.062Z,5.74
2023-02-24T06:07:03.858Z,5.63
2023-02-24T06:09:54.791Z,5.45
2023-02-24T06:12:43.725Z,5.54
2023-02-24T06:15:33.093Z,5.39
2023-02-24T06:18:22.329Z,5.43
2023-02-24T06:21:12.790Z,5.38
2023-02-24T06:24:04.960Z,5.07
2023-02-24T06:26:56.463Z,5.30
2023-02-24T06:29:50.201Z,5.41
2023-02-24T06:32:39.540Z,5.51
2023-02-24T06:35:28.577Z,5.60
2023-02-24T06:38:17.854Z,5.51
2023-02-24T06:41:11.078Z,5.31
2023-02-24T06:44:00.218Z,5.07
2023-02-24T06:46:49.313Z,4.96
2023-02-24T06:49:39.145Z,5.00
2023-02-24T06:52:30.046Z,5.09
2023-02-24T06:55:33.350Z,4.90
2023-02-24T06:58:25.029Z,4.86
2023-02-24T07:01:15.264Z,4.88
2023-02-24T07:04:20.993Z,5.01
2023-02-24T07:07:14.648Z,5.07
2023-02-24T07:10:04.411Z,4.92
2023-02-24T07:12:55.149Z,4.86
2023-02-24T07:15:51.577Z,5.05
2023-02-24T07:18:41.824Z,5.09
2023-02-24T07:21:39.933Z,5.13
2023-02-24T07:24:36.209Z,5.10
2023-02-24T07:27:27.884Z,5.13
2023-02-24T07:30:18.419Z,5.16
2023-02-24T07:33:10.607Z,5.23
2023-02-24T07:35:59.702Z,5.41
2023-02-24T07:38:48.985Z,5.37
2023-02-24T07:41:38.088Z,5.43
2023-02-24T07:44:29.494Z,5.46
2023-02-24T07:47:18.610Z,5.55
2023-02-24T07:50:14.675Z,5.36
2023-02-24T07:53:05.356Z,5.43
2023-02-24T07:55:55.121Z,5.54
2023-02-24T07:58:45.478Z,5.59
2023-02-24T08:01:39.196Z,5.47
2023-02-24T08:04:30.289Z,5.28
2023-02-24T08:07:25.246Z,5.54
2023-02-24T08:10:25.559Z,5.69
2023-02-24T08:13:14.508Z,5.83
2023-02-24T08:16:06.729Z,5.88
2023-02-24T08:18:57.949Z,5.93
2023-02-24T08:21:50.567Z,5.90
2023-02-24T08:24:43.954Z,5.92
2023-02-24T08:27:38.919Z,5.98
2023-02-24T08:30:30.131Z,6.11
2023-02-24T08:33:21.602Z,6.00
2023-02-24T08:36:10.831Z,5.94
2023-02-24T08:38:59.923Z,6.00
2023-02-24T08:41:51.629Z,6.08
2023-02-24T08:44:42.426Z,6.00
2023-02-24T08:47:36.170Z,6.08
2023-02-24T08:50:31.219Z,6.02
2023-02-24T08:53:20.350Z,6.09
2023-02-24T08:56:11.642Z,6.14
2023-02-24T08:59:06.460Z,6.17
2023-02-24T09:02:14.886Z,6.31
2023-02-24T09:05:13.197Z,6.32
2023-02-24T09:08:04.856Z,6.23
2023-02-24T09:10:53.584Z,6.32
2023-02-24T09:13:51.798Z,6.34
2023-02-24T09:16:52.482Z,6.36
2023-02-24T09:19:56.900Z,6.42
2023-02-24T09:22:58.186Z,6.42
2023-02-24T09:25:50.707Z,6.50
2023-02-24T09:28:48.763Z,6.65
2023-02-24T09:31:48.347Z,6.77
2023-02-24T09:34:44.146Z,6.75
2023-02-24T09:37:33.038Z,6.81
2023-02-24T09:40:39.546Z,6.91
2023-02-24T09:43:30.983Z,7.10
2023-02-24T09:46:19.792Z,7.18
2023-02-24T09:49:15.387Z,7.26
2023-02-24T09:52:09.172Z,7.30
2023-02-24T09:55:11.743Z,7.41
2023-02-24T09:58:25.008Z,7.43
2023-02-24T10:01:33.860Z,7.55
2023-02-24T10:04:36.271Z,7.61
2023-02-24T10:07:36.247Z,7.56
2023-02-24T10:10:29.215Z,7.61
2023-02-24T10:13:30.458Z,7.80
2023-02-24T10:16:24.249Z,7.82
2023-02-24T10:19:19.935Z,7.88
2023-02-24T10:22:27.674Z,8.02
2023-02-24T10:25:41.817Z,7.96
2023-02-24T10:28:36.900Z,8.04
2023-02-24T10:31:30.779Z,8.03
2023-02-24T10:34:25.383Z,8.10
2023-02-24T10:37:27.653Z,8.22
2023-02-24T10:40:26.604Z,8.27
2023-02-24T10:43:19.650Z,8.35
2023-02-24T10:46:17.514Z,8.33
2023-02-24T10:49:10.152Z,8.30
2023-02-24T10:51:59.105Z,8.36
2023-02-24T10:55:05.300Z,8.45
2023-02-24T10:58:06.142Z,8.37
2023-02-24T11:01:13.678Z,8.49
2023-02-24T11:04:22.836Z,8.38
2023-02-24T11:07:24.572Z,8.49
2023-02-24T11:10:19.119Z,8.59
2023-02-24T11:13:31.442Z,8.56
2023-02-24T11:16:39.384Z,8.63
2023-02-24T11:19:29.943Z,8.63
2023-02-24T11:22:22.252Z,8.69
2023-02-24T11:25:22.898Z,8.72
2023-02-24T11:28:21.623Z,8.61
2023-02-24T11:31:22.171Z,8.73
2023-02-24T11:34:20.698Z,8.65
2023-02-24T11:37:16.250Z,8.69
2023-02-24T11:40:09.917Z,8.67
2023-02-24T11:43:01.168Z,8.67
2023-02-24T11:45:52.590Z,8.79
2023-02-24T11:48:45.306Z,8.88
2023-02-24T11:51:38.077Z,8.84
2023-02-24T11:54:27.340Z,8.94
2023-02-24T11:57:20.842Z,9.08
2023-02-24T12:00:20.233Z,9.17
2023-02-24T12:03:15.844Z,9.21
2023-02-24T12:06:15.010Z,9.15
2023-02-24T12:09:12.248Z,9.19
2023-02-24T12:12:03.987Z,9.16
2023-02-24T12:14:55.392Z,9.18
2023-02-24T12:17:51.891Z,9.27
2023-02-24T12:20:43.398Z,9.38
2023-02-24T12:23:34.374Z,9.43
2023-02-24T12:26:27.353Z,9.39
2023-02-24T12:29:42.692Z,9.46
2023-02-24T12:32:41.480Z,9.59
2023-02-24T12:35:36.447Z,9.62
2023-02-24T12:38:38.573Z,9.57
2023-02-24T12:41:48.205Z,9.47
2023-02-24T12:44:45.669Z,9.57
2023-02-24T12:47:43.094Z,9.61
2023-02-24T12:50:38.338Z,9.67
2023-02-24T12:53:32.518Z,9.64
2023-02-24T12:56:24.268Z,9.79
2023-02-24T12:59:18.163Z,9.69
2023-02-24T13:02:09.398Z,9.75
2023-02-24T13:05:04.561Z,9.81
2023-02-24T13:08:08.604Z,9.94
2023-02-24T13:11:03.822Z,9.91
2023-02-24T13:13:58.025Z,9.91
2023-02-24T13:16:48.275Z,9.96
2023-02-24T13:19:37.895Z,9.92
2023-02-24T13:22:32.873Z,9.98
2023-02-24T13:25:24.042Z,10.01
2023-02-24T13:28:26.257Z,9.92
2023-02-24T13:31:15.109Z,10.02
2023-02-24T13:34:14.487Z,10.09
2023-02-24T13:37:04.434Z,10.14
2023-02-24T13:39:53.052Z,10.15
2023-02-24T13:42:42.148Z,10.18
2023-02-24T13:45:32.082Z,9.93
2023-02-24T13:48:32.430Z,10.05
2023-02-24T13:51:41.582Z,10.04
2023-02-24T13:55:00.316Z,9.97
2023-02-24T13:57:59.527Z,10.02
2023-02-24T14:00:59.572Z,9.79
2023-02-24T14:04:06.738Z,9.85
2023-02-24T14:06:59.023Z,10.00
2023-02-24T14:09:52.771Z,10.12
2023-02-24T14:12:43.675Z,10.11
2023-02-24T14:15:32.835Z,10.11
2023-02-24T14:18:23.711Z,10.15
2023-02-24T14:21:22.445Z,10.16
2023-02-24T14:24:15.151Z,10.18
2023-02-24T14:27:04.147Z,10.27
2023-02-24T14:29:54.309Z,10.20
2023-02-24T14:32:45.279Z,10.20
2023-02-24T14:35:37.276Z,10.20
2023-02-24T14:38:31.613Z,10.22
2023-02-24T14:41:23.552Z,10.25
2023-02-24T14:44:22.159Z,10.18
2023-02-24T14:47:12.242Z,10.14
2023-02-24T14:50:02.675Z,10.12
2023-02-24T14:52:55.440Z,10.11
2023-02-24T14:55:48.170Z,10.21
2023-02-24T14:58:42.607Z,10.18
2023-02-24T15:01:34.160Z,10.25
2023-02-24T15:04:32.213Z,10.32
2023-02-24T15:07:24.068Z,10.15
2023-02-24T15:10:21.203Z,10.09
2023-02-24T15:13:14.228Z,10.14
2023-02-24T15:16:10.238Z,10.16
2023-02-24T15:19:01.562Z,10.17
2023-02-24T15:21:50.490Z,10.14
2023-02-24T15:24:39.076Z,10.06
2023-02-24T15:27:29.433Z,9.92
2023-02-24T15:30:31.962Z,9.92
2023-02-24T15:33:23.812Z,9.95
2023-02-24T15:36:13.955Z,9.94
2023-02-24T15:39:06.167Z,9.94
2023-02-24T15:42:07.826Z,9.91
2023-02-24T15:44:57.962Z,9.94
2023-02-24T15:47:47.029Z,9.94
2023-02-24T15:50:39.203Z,9.98
2023-02-24T15:53:27.679Z,9.81
2023-02-24T15:56:17.275Z,9.60
2023-02-24T15:59:06.141Z,9.54
2023-02-24T16:01:54.923Z,9.51
2023-02-24T16:04:44.003Z,9.45
2023-02-24T16:07:36.362Z,9.35
2023-02-24T16:10:27.829Z,9.28
2023-02-24T16:13:18.744Z,9.27
2023-02-24T16:16:08.158Z,9.31
2023-02-24T16:18:57.194Z,9.31
2023-02-24T16:21:46.614Z,9.32
2023-02-24T16:24:36.578Z,9.27
2023-02-24T16:27:26.138Z,9.26
2023-02-24T16:30:22.123Z,9.26
2023-02-24T16:33:13.078Z,9.22
2023-02-24T16:36:02.154Z,9.26
2023-02-24T16:38:51.778Z,9.33
2023-02-24T16:41:42.090Z,9.21
2023-02-24T16:44:30.894Z,9.20
2023-02-24T16:47:23.130Z,9.11
2023-02-24T16:50:19.697Z,9.11
2023-02-24T16:53:09.158Z,9.16
2023-02-24T16:55:58.044Z,9.15
2023-02-24T16:58:48.620Z,9.16
2023-02-24T17:01:37.416Z,9.02
2023-02-24T17:04:26.138Z,8.94
2023-02-24T17:07:16.216Z,8.95
2023-02-24T17:10:05.138Z,8.93
2023-02-24T17:12:54.113Z,8.95
2023-02-24T17:15:44.342Z,8.93
2023-02-24T17:18:32.991Z,8.83
2023-02-24T17:21:21.773Z,8.86
2023-02-24T17:24:15.138Z,8.80
2023-02-24T17:27:04.420Z,8.80
2023-02-24T17:29:53.238Z,8.75
2023-02-24T17:32:43.507Z,8.67
2023-02-24T17:35:32.533Z,8.71
2023-02-24T17:38:23.279Z,8.55
2023-02-24T17:41:11.905Z,8.54
2023-02-24T17:44:00.705Z,8.57
2023-02-24T17:46:49.351Z,8.51
2023-02-24T17:49:39.915Z,8.42
2023-02-24T17:52:29.455Z,8.43
2023-02-24T17:55:18.661Z,8.45
2023-02-24T17:58:07.453Z,8.49
2023-02-24T18:00:56.483Z,8.45
2023-02-24T18:03:45.467Z,8.39
2023-02-24T18:06:36.219Z,8.42
2023-02-24T18:09:25.055Z,8.39
2023-02-24T18:12:14.133Z,8.39
2023-02-24T18:15:08.551Z,8.42
2023-02-24T18:17:57.848Z,8.39
2023-02-24T18:20:46.605Z,8.38
2023-02-24T18:23:38.259Z,8.34
2023-02-24T18:26:27.309Z,8.38
2023-02-24T18:29:16.097Z,8.31
2023-02-24T18:32:05.245Z,8.35
2023-02-24T18:34:54.374Z,8.39
2023-02-24T18:37:43.758Z,8.40
2023-02-24T18:40:34.158Z,8.42
2023-02-24T18:43:22.782Z,8.37
2023-02-24T18:46:13.974Z,8.31
2023-02-24T18:49:03.685Z,8.27
2023-02-24T18:51:52.798Z,8.28
2023-02-24T18:54:41.691Z,8.24
2023-02-24T18:57:32.056Z,8.23
2023-02-24T19:00:21.649Z,8.24
2023-02-24T19:03:10.791Z,8.25
2023-02-24T19:05:59.635Z,8.23
2023-02-24T19:08:49.491Z,8.18
2023-02-24T19:11:39.206Z,8.22
2023-02-24T19:14:29.594Z,8.24
2023-02-24T19:17:18.742Z,8.24
2023-02-24T19:20:09.688Z,7.96
2023-02-24T19:22:58.785Z,7.95
2023-02-24T19:25:47.710Z,7.76
2023-02-24T19:28:36.479Z,7.70
2023-02-24T19:31:28.997Z,7.52
2023-02-24T19:34:18.025Z,7.34
2023-02-24T19:37:06.793Z,7.39
2023-02-24T19:39:56.159Z,7.28
2023-02-24T19:42:47.116Z,7.21
2023-02-24T19:45:36.132Z,7.13
2023-02-24T19:48:26.128Z,7.13
2023-02-24T19:51:16.637Z,7.05
2023-02-24T19:54:06.371Z,7.15
2023-02-24T19:56:57.984Z,7.00
2023-02-24T19:59:46.809Z,6.90
2023-02-24T20:02:35.766Z,6.94
2023-02-24T20:05:26.117Z,6.91
2023-02-24T20:08:15.035Z,6.85
2023-02-24T20:11:06.479Z,6.79
2023-02-24T20:13:55.780Z,6.89
2023-02-24T20:16:46.829Z,6.77
2023-02-24T20:19:35.801Z,6.73
2023-02-24T20:22:26.673Z,6.69
2023-02-24T20:25:16.073Z,6.67
2023-02-24T20:28:05.178Z,6.58
2023-02-24T20:30:55.020Z,6.52
2023-02-24T20:33:44.562Z,6.45
2023-02-24T20:36:34.600Z,6.50
2023-02-24T20:39:25.926Z,6.44
2023-02-24T20:42:15.312Z,6.44
2023-02-24T20:45:05.147Z,6.44
2023-02-24T20:47:54.200Z,6.43
2023-02-24T20:50:43.632Z,6.42
2023-02-24T20:53:37.911Z,6.32
2023-02-24T20:56:34.270Z,6.29
2023-02-24T20:59:23.547Z,6.32
2023-02-24T21:02:13.301Z,6.28
2023-02-24T21:05:02.678Z,6.24
2023-02-24T21:07:51.849Z,6.17
2023-02-24T21:10:44.993Z,6.14
2023-02-24T21:13:36.552Z,6.18
2023-02-24T21:16:27.001Z,6.10
2023-02-24T21:19:19.268Z,6.09
2023-02-24T21:22:09.359Z,6.09
2023-02-24T21:24:58.401Z,6.09
2023-02-24T21:27:48.702Z,6.07
2023-02-24T21:30:44.125Z,6.04
2023-02-24T21:33:33.422Z,6.00
2023-02-24T21:36:26.530Z,5.97
2023-02-24T21:39:15.784Z,6.00
2023-02-24T21:42:04.942Z,6.06
2023-02-24T21:44:57.379Z,6.04
2023-02-24T21:47:48.132Z,5.93
2023-02-24T21:50:37.973Z,5.95
2023-02-24T21:53:28.373Z,5.90
2023-02-24T21:56:19.846Z,5.90
2023-02-24T21:59:11.397Z,5.94
2023-02-24T22:02:01.025Z,5.97
2023-02-24T22:04:52.615Z,5.90
2023-02-24T22:07:41.774Z,5.90
2023-02-24T22:10:30.943Z,5.95
2023-02-24T22:13:20.209Z,5.82
2023-02-24T22:16:11.175Z,5.69
2023-02-24T22:19:01.212Z,5.69
2023-02-24T22:21:51.809Z,5.64
2023-02-24T22:24:41.884Z,5.67
2023-02-24T22:27:31.892Z,5.50
2023-02-24T22:30:21.160Z,5.37
2023-02-24T22:33:10.548Z,5.31
2023-02-24T22:36:03.620Z,5.21
2023-02-24T22:38:54.857Z,5.26
2023-02-24T22:41:45.643Z,5.27
2023-02-24T22:44:34.937Z,5.27
2023-02-24T22:47:24.319Z,5.25
2023-02-24T22:50:13.648Z,5.25
2023-02-24T22:53:02.809Z,5.21
2023-02-24T22:55:53.294Z,5.19
2023-02-24T22:58:42.409Z,5.11
2023-02-24T23:01:33.445Z,4.73
2023-02-24T23:04:22.605Z,4.48
2023-02-24T23:07:12.150Z,4.40
2023-02-24T23:10:01.372Z,4.09
2023-02-24T23:12:53.207Z,4.21
2023-02-24T23:15:42.544Z,4.00
2023-02-24T23:18:32.485Z,3.96
2023-02-24T23:21:24.255Z,4.03
2023-02-24T23:24:15.173Z,4.00
2023-02-24T23:27:04.448Z,4.05
2023-02-24T23:29:55.250Z,4.05
2023-02-24T23:32:45.174Z,4.06
2023-02-24T23:35:36.321Z,4.01
2023-02-24T23:38:26.697Z,4.11
2023-02-24T23:41:16.798Z,4.21
2023-02-24T23:44:06.950Z,4.26
2023-02-24T23:46:58.812Z,4.15
2023-02-24T23:49:48.815Z,4.28
2023-02-24T23:52:38.558Z,4.03
2023-02-24T23:55:30.740Z,4.05
2023-02-24T23:58:20.301Z,4.02
